sensor_id;sensor_type;location;lat;lon;timestamp;P1;durP1;ratioP1;P2;durP2;ratioP2
65706;SDS011;52423;43.512;5.220;2022-08-19T00:00:08;6.78;;;2.80;;
65706;SDS011;52423;43.512;5.220;2022-08-19T00:02:36;2.92;;;1.98;;
65706;SDS011;52423;43.512;5.220;2022-08-19T00:05:03;5.65;;;1.70;;
65706;SDS011;52423;43.512;5.220;2022-08-19T00:07:29;1.80;;;1.70;;
65706;SDS011;52423;43.512;5.220;2022-08-19T00:09:55;6.15;;;1.73;;
65706;SDS011;52423;43.512;5.220;2022-08-19T00:12:21;1.95;;;1.85;;
65706;SDS011;52423;43.512;5.220;2022-08-19T00:14:47;2.03;;;1.67;;
65706;SDS011;52423;43.512;5.220;2022-08-19T00:17:12;3.55;;;1.80;;
65706;SDS011;52423;43.512;5.220;2022-08-19T00:19:38;1.83;;;1.50;;
65706;SDS011;52423;43.512;5.220;2022-08-19T00:22:04;1.90;;;1.60;;
65706;SDS011;52423;43.512;5.220;2022-08-19T00:24:30;2.75;;;1.52;;
65706;SDS011;52423;43.512;5.220;2022-08-19T00:26:56;1.45;;;1.42;;
65706;SDS011;52423;43.512;5.220;2022-08-19T00:29:23;1.90;;;1.80;;
65706;SDS011;52423;43.512;5.220;2022-08-19T00:31:50;1.75;;;1.30;;
65706;SDS011;52423;43.512;5.220;2022-08-19T00:34:20;1.63;;;1.52;;
65706;SDS011;52423;43.512;5.220;2022-08-19T00:36:47;2.20;;;1.60;;
65706;SDS011;52423;43.512;5.220;2022-08-19T00:39:13;6.47;;;1.70;;
65706;SDS011;52423;43.512;5.220;2022-08-19T00:41:41;8.75;;;1.80;;
65706;SDS011;52423;43.512;5.220;2022-08-19T00:44:10;4.57;;;1.70;;
65706;SDS011;52423;43.512;5.220;2022-08-19T00:46:39;1.48;;;1.38;;
65706;SDS011;52423;43.512;5.220;2022-08-19T00:49:09;3.65;;;1.58;;
65706;SDS011;52423;43.512;5.220;2022-08-19T00:51:42;1.65;;;1.30;;
65706;SDS011;52423;43.512;5.220;2022-08-19T00:54:11;2.47;;;1.90;;
65706;SDS011;52423;43.512;5.220;2022-08-19T00:56:38;1.55;;;1.45;;
65706;SDS011;52423;43.512;5.220;2022-08-19T00:59:05;2.47;;;1.38;;
65706;SDS011;52423;43.512;5.220;2022-08-19T01:01:35;2.45;;;1.73;;
65706;SDS011;52423;43.512;5.220;2022-08-19T01:04:06;3.53;;;1.60;;
65706;SDS011;52423;43.512;5.220;2022-08-19T01:06:32;2.38;;;1.55;;
65706;SDS011;52423;43.512;5.220;2022-08-19T01:08:58;2.58;;;1.45;;
65706;SDS011;52423;43.512;5.220;2022-08-19T01:11:25;3.40;;;1.33;;
65706;SDS011;52423;43.512;5.220;2022-08-19T01:13:52;1.98;;;1.20;;
65706;SDS011;52423;43.512;5.220;2022-08-19T01:16:19;2.72;;;1.58;;
65706;SDS011;52423;43.512;5.220;2022-08-19T01:18:47;1.42;;;1.33;;
65706;SDS011;52423;43.512;5.220;2022-08-19T01:24:16;2.42;;;1.50;;
65706;SDS011;52423;43.512;5.220;2022-08-19T01:26:43;4.95;;;1.55;;
65706;SDS011;52423;43.512;5.220;2022-08-19T01:29:10;2.63;;;1.52;;
65706;SDS011;52423;43.512;5.220;2022-08-19T01:31:36;1.60;;;1.50;;
65706;SDS011;52423;43.512;5.220;2022-08-19T01:34:04;2.47;;;1.60;;
65706;SDS011;52423;43.512;5.220;2022-08-19T01:36:32;1.48;;;1.38;;
65706;SDS011;52423;43.512;5.220;2022-08-19T01:39:00;1.65;;;1.55;;
65706;SDS011;52423;43.512;5.220;2022-08-19T01:41:28;1.58;;;1.40;;
65706;SDS011;52423;43.512;5.220;2022-08-19T01:43:54;1.60;;;1.50;;
65706;SDS011;52423;43.512;5.220;2022-08-19T01:46:21;1.70;;;1.60;;
65706;SDS011;52423;43.512;5.220;2022-08-19T01:48:47;1.20;;;1.20;;
65706;SDS011;52423;43.512;5.220;2022-08-19T01:51:13;2.05;;;1.33;;
65706;SDS011;52423;43.512;5.220;2022-08-19T01:53:39;8.73;;;1.40;;
65706;SDS011;52423;43.512;5.220;2022-08-19T01:56:06;2.20;;;1.50;;
65706;SDS011;52423;43.512;5.220;2022-08-19T01:58:33;4.05;;;1.58;;
65706;SDS011;52423;43.512;5.220;2022-08-19T02:01:04;2.55;;;1.38;;
65706;SDS011;52423;43.512;5.220;2022-08-19T02:03:31;4.78;;;1.92;;
65706;SDS011;52423;43.512;5.220;2022-08-19T02:05:57;2.25;;;1.42;;
65706;SDS011;52423;43.512;5.220;2022-08-19T02:08:29;7.07;;;2.10;;
65706;SDS011;52423;43.512;5.220;2022-08-19T02:10:55;1.13;;;1.13;;
65706;SDS011;52423;43.512;5.220;2022-08-19T02:13:23;1.13;;;1.13;;
65706;SDS011;52423;43.512;5.220;2022-08-19T02:15:50;2.00;;;1.30;;
65706;SDS011;52423;43.512;5.220;2022-08-19T02:18:16;2.53;;;1.20;;
65706;SDS011;52423;43.512;5.220;2022-08-19T02:20:42;2.45;;;1.10;;
65706;SDS011;52423;43.512;5.220;2022-08-19T02:23:10;2.05;;;1.27;;
65706;SDS011;52423;43.512;5.220;2022-08-19T02:25:37;2.03;;;1.30;;
65706;SDS011;52423;43.512;5.220;2022-08-19T02:28:03;2.38;;;1.15;;
65706;SDS011;52423;43.512;5.220;2022-08-19T02:30:30;1.48;;;1.33;;
65706;SDS011;52423;43.512;5.220;2022-08-19T02:32:56;1.40;;;1.30;;
65706;SDS011;52423;43.512;5.220;2022-08-19T02:35:23;1.55;;;1.45;;
65706;SDS011;52423;43.512;5.220;2022-08-19T02:37:49;2.78;;;1.40;;
65706;SDS011;52423;43.512;5.220;2022-08-19T02:40:33;2.00;;;1.33;;
65706;SDS011;52423;43.512;5.220;2022-08-19T02:43:03;1.70;;;1.23;;
65706;SDS011;52423;43.512;5.220;2022-08-19T02:45:34;1.50;;;1.40;;
65706;SDS011;52423;43.512;5.220;2022-08-19T02:48:02;2.67;;;1.48;;
65706;SDS011;52423;43.512;5.220;2022-08-19T02:50:28;1.50;;;1.40;;
65706;SDS011;52423;43.512;5.220;2022-08-19T02:52:53;3.35;;;1.70;;
65706;SDS011;52423;43.512;5.220;2022-08-19T02:55:19;1.40;;;1.30;;
65706;SDS011;52423;43.512;5.220;2022-08-19T02:57:46;1.77;;;1.67;;
65706;SDS011;52423;43.512;5.220;2022-08-19T03:00:12;1.40;;;1.40;;
65706;SDS011;52423;43.512;5.220;2022-08-19T03:02:39;1.80;;;1.70;;
65706;SDS011;52423;43.512;5.220;2022-08-19T03:05:05;2.25;;;1.70;;
65706;SDS011;52423;43.512;5.220;2022-08-19T03:07:34;2.28;;;1.60;;
65706;SDS011;52423;43.512;5.220;2022-08-19T03:10:00;1.63;;;1.52;;
65706;SDS011;52423;43.512;5.220;2022-08-19T03:12:26;2.60;;;1.90;;
65706;SDS011;52423;43.512;5.220;2022-08-19T03:14:52;5.15;;;1.77;;
65706;SDS011;52423;43.512;5.220;2022-08-19T03:17:18;2.63;;;1.77;;
65706;SDS011;52423;43.512;5.220;2022-08-19T03:19:44;2.13;;;1.80;;
65706;SDS011;52423;43.512;5.220;2022-08-19T03:22:10;1.80;;;1.70;;
65706;SDS011;52423;43.512;5.220;2022-08-19T03:24:36;2.35;;;1.95;;
65706;SDS011;52423;43.512;5.220;2022-08-19T03:27:02;3.97;;;2.40;;
65706;SDS011;52423;43.512;5.220;2022-08-19T03:29:30;2.47;;;2.28;;
65706;SDS011;52423;43.512;5.220;2022-08-19T03:32:00;2.40;;;2.20;;
65706;SDS011;52423;43.512;5.220;2022-08-19T03:34:29;2.20;;;2.00;;
65706;SDS011;52423;43.512;5.220;2022-08-19T03:36:57;2.78;;;2.10;;
65706;SDS011;52423;43.512;5.220;2022-08-19T03:39:26;2.15;;;2.05;;
65706;SDS011;52423;43.512;5.220;2022-08-19T03:41:52;2.80;;;2.53;;
65706;SDS011;52423;43.512;5.220;2022-08-19T03:44:21;2.70;;;2.05;;
65706;SDS011;52423;43.512;5.220;2022-08-19T03:46:57;2.10;;;2.00;;
65706;SDS011;52423;43.512;5.220;2022-08-19T03:49:26;2.20;;;2.10;;
65706;SDS011;52423;43.512;5.220;2022-08-19T03:51:55;3.63;;;2.05;;
65706;SDS011;52423;43.512;5.220;2022-08-19T03:54:23;5.78;;;2.00;;
65706;SDS011;52423;43.512;5.220;2022-08-19T03:56:51;5.28;;;2.05;;
65706;SDS011;52423;43.512;5.220;2022-08-19T03:59:20;3.15;;;2.15;;
65706;SDS011;52423;43.512;5.220;2022-08-19T04:01:54;3.75;;;2.35;;
65706;SDS011;52423;43.512;5.220;2022-08-19T04:04:21;1.95;;;1.85;;
65706;SDS011;52423;43.512;5.220;2022-08-19T04:06:48;2.22;;;2.10;;
65706;SDS011;52423;43.512;5.220;2022-08-19T04:09:14;2.55;;;2.35;;
65706;SDS011;52423;43.512;5.220;2022-08-19T04:11:42;2.55;;;2.00;;
65706;SDS011;52423;43.512;5.220;2022-08-19T04:14:11;2.00;;;1.90;;
65706;SDS011;52423;43.512;5.220;2022-08-19T04:16:38;1.95;;;1.85;;
65706;SDS011;52423;43.512;5.220;2022-08-19T04:19:04;2.35;;;2.15;;
65706;SDS011;52423;43.512;5.220;2022-08-19T04:21:30;2.05;;;1.95;;
65706;SDS011;52423;43.512;5.220;2022-08-19T04:23:56;1.90;;;1.80;;
65706;SDS011;52423;43.512;5.220;2022-08-19T04:26:30;5.75;;;2.97;;
65706;SDS011;52423;43.512;5.220;2022-08-19T04:28:58;2.25;;;1.88;;
65706;SDS011;52423;43.512;5.220;2022-08-19T04:31:25;2.20;;;2.10;;
65706;SDS011;52423;43.512;5.220;2022-08-19T04:33:53;2.80;;;2.15;;
65706;SDS011;52423;43.512;5.220;2022-08-19T04:36:23;1.83;;;1.60;;
65706;SDS011;52423;43.512;5.220;2022-08-19T04:38:53;5.38;;;1.98;;
65706;SDS011;52423;43.512;5.220;2022-08-19T04:41:20;1.80;;;1.70;;
65706;SDS011;52423;43.512;5.220;2022-08-19T04:44:04;1.90;;;1.80;;
65706;SDS011;52423;43.512;5.220;2022-08-19T04:46:30;2.05;;;1.92;;
65706;SDS011;52423;43.512;5.220;2022-08-19T04:49:00;3.88;;;1.60;;
65706;SDS011;52423;43.512;5.220;2022-08-19T04:51:28;2.55;;;1.83;;
65706;SDS011;52423;43.512;5.220;2022-08-19T04:53:56;2.38;;;1.95;;
65706;SDS011;52423;43.512;5.220;2022-08-19T04:56:22;2.45;;;2.20;;
65706;SDS011;52423;43.512;5.220;2022-08-19T04:58:52;1.65;;;1.55;;
65706;SDS011;52423;43.512;5.220;2022-08-19T05:01:23;1.67;;;1.58;;
65706;SDS011;52423;43.512;5.220;2022-08-19T05:03:51;3.33;;;1.65;;
65706;SDS011;52423;43.512;5.220;2022-08-19T05:06:18;4.55;;;1.73;;
65706;SDS011;52423;43.512;5.220;2022-08-19T05:08:46;2.70;;;1.70;;
65706;SDS011;52423;43.512;5.220;2022-08-19T05:11:13;3.00;;;1.80;;
65706;SDS011;52423;43.512;5.220;2022-08-19T05:13:45;2.35;;;1.60;;
65706;SDS011;52423;43.512;5.220;2022-08-19T05:16:14;2.15;;;1.60;;
65706;SDS011;52423;43.512;5.220;2022-08-19T05:18:41;2.38;;;1.77;;
65706;SDS011;52423;43.512;5.220;2022-08-19T05:21:25;1.70;;;1.60;;
65706;SDS011;52423;43.512;5.220;2022-08-19T05:24:10;2.72;;;1.60;;
65706;SDS011;52423;43.512;5.220;2022-08-19T05:26:38;1.73;;;1.63;;
65706;SDS011;52423;43.512;5.220;2022-08-19T05:29:06;1.70;;;1.60;;
65706;SDS011;52423;43.512;5.220;2022-08-19T05:31:33;1.80;;;1.70;;
65706;SDS011;52423;43.512;5.220;2022-08-19T05:34:00;2.50;;;1.80;;
65706;SDS011;52423;43.512;5.220;2022-08-19T05:36:27;1.77;;;1.63;;
65706;SDS011;52423;43.512;5.220;2022-08-19T05:38:54;2.03;;;1.70;;
65706;SDS011;52423;43.512;5.220;2022-08-19T05:41:20;2.88;;;2.05;;
65706;SDS011;52423;43.512;5.220;2022-08-19T05:43:55;1.80;;;1.70;;
65706;SDS011;52423;43.512;5.220;2022-08-19T05:46:26;1.90;;;1.80;;
65706;SDS011;52423;43.512;5.220;2022-08-19T05:48:52;2.05;;;1.67;;
65706;SDS011;52423;43.512;5.220;2022-08-19T05:51:17;1.60;;;1.50;;
65706;SDS011;52423;43.512;5.220;2022-08-19T05:53:43;1.65;;;1.55;;
65706;SDS011;52423;43.512;5.220;2022-08-19T05:56:12;1.55;;;1.45;;
65706;SDS011;52423;43.512;5.220;2022-08-19T05:58:41;1.55;;;1.50;;
65706;SDS011;52423;43.512;5.220;2022-08-19T06:01:14;3.30;;;1.65;;
65706;SDS011;52423;43.512;5.220;2022-08-19T06:03:42;3.40;;;1.90;;
65706;SDS011;52423;43.512;5.220;2022-08-19T06:06:09;1.88;;;1.60;;
65706;SDS011;52423;43.512;5.220;2022-08-19T06:08:37;4.13;;;1.80;;
65706;SDS011;52423;43.512;5.220;2022-08-19T06:11:17;2.20;;;2.00;;
65706;SDS011;52423;43.512;5.220;2022-08-19T06:13:46;2.85;;;1.63;;
65706;SDS011;52423;43.512;5.220;2022-08-19T06:16:19;3.85;;;1.80;;
65706;SDS011;52423;43.512;5.220;2022-08-19T06:18:49;4.35;;;1.70;;
65706;SDS011;52423;43.512;5.220;2022-08-19T06:21:22;1.77;;;1.67;;
65706;SDS011;52423;43.512;5.220;2022-08-19T06:23:51;2.25;;;1.67;;
65706;SDS011;52423;43.512;5.220;2022-08-19T06:26:18;2.17;;;1.90;;
65706;SDS011;52423;43.512;5.220;2022-08-19T06:28:45;1.80;;;1.67;;
65706;SDS011;52423;43.512;5.220;2022-08-19T06:31:13;2.75;;;2.03;;
65706;SDS011;52423;43.512;5.220;2022-08-19T06:33:46;3.20;;;1.90;;
65706;SDS011;52423;43.512;5.220;2022-08-19T06:36:32;6.18;;;1.75;;
65706;SDS011;52423;43.512;5.220;2022-08-19T06:39:10;2.97;;;1.55;;
65706;SDS011;52423;43.512;5.220;2022-08-19T06:41:40;2.55;;;2.15;;
65706;SDS011;52423;43.512;5.220;2022-08-19T06:44:07;3.35;;;1.77;;
65706;SDS011;52423;43.512;5.220;2022-08-19T06:46:34;3.65;;;1.85;;
65706;SDS011;52423;43.512;5.220;2022-08-19T06:49:00;2.60;;;1.90;;
65706;SDS011;52423;43.512;5.220;2022-08-19T06:51:26;3.72;;;1.80;;
65706;SDS011;52423;43.512;5.220;2022-08-19T06:53:53;2.13;;;1.92;;
65706;SDS011;52423;43.512;5.220;2022-08-19T06:56:21;2.10;;;2.00;;
65706;SDS011;52423;43.512;5.220;2022-08-19T06:58:50;5.30;;;1.75;;
65706;SDS011;52423;43.512;5.220;2022-08-19T07:01:18;7.18;;;2.00;;
65706;SDS011;52423;43.512;5.220;2022-08-19T07:03:45;2.00;;;1.90;;
65706;SDS011;52423;43.512;5.220;2022-08-19T07:06:13;3.47;;;1.83;;
65706;SDS011;52423;43.512;5.220;2022-08-19T07:08:43;2.95;;;1.92;;
65706;SDS011;52423;43.512;5.220;2022-08-19T07:11:12;3.60;;;1.95;;
65706;SDS011;52423;43.512;5.220;2022-08-19T07:13:40;1.90;;;1.80;;
65706;SDS011;52423;43.512;5.220;2022-08-19T07:16:12;3.60;;;1.92;;
65706;SDS011;52423;43.512;5.220;2022-08-19T07:18:40;4.80;;;2.10;;
65706;SDS011;52423;43.512;5.220;2022-08-19T07:21:07;4.25;;;1.88;;
65706;SDS011;52423;43.512;5.220;2022-08-19T07:23:38;5.38;;;2.30;;
65706;SDS011;52423;43.512;5.220;2022-08-19T07:26:07;2.30;;;2.17;;
65706;SDS011;52423;43.512;5.220;2022-08-19T07:28:36;2.20;;;2.00;;
65706;SDS011;52423;43.512;5.220;2022-08-19T07:31:07;3.22;;;2.22;;
65706;SDS011;52423;43.512;5.220;2022-08-19T07:33:34;2.15;;;2.05;;
65706;SDS011;52423;43.512;5.220;2022-08-19T07:36:05;4.50;;;2.25;;
65706;SDS011;52423;43.512;5.220;2022-08-19T07:38:32;4.93;;;2.50;;
65706;SDS011;52423;43.512;5.220;2022-08-19T07:40:59;2.83;;;2.08;;
65706;SDS011;52423;43.512;5.220;2022-08-19T07:43:26;2.95;;;2.08;;
65706;SDS011;52423;43.512;5.220;2022-08-19T07:45:52;2.25;;;2.08;;
65706;SDS011;52423;43.512;5.220;2022-08-19T07:48:25;3.67;;;2.42;;
65706;SDS011;52423;43.512;5.220;2022-08-19T07:50:55;4.28;;;2.50;;
65706;SDS011;52423;43.512;5.220;2022-08-19T07:53:22;2.20;;;2.10;;
65706;SDS011;52423;43.512;5.220;2022-08-19T07:55:49;2.70;;;2.35;;
65706;SDS011;52423;43.512;5.220;2022-08-19T07:58:17;2.88;;;2.67;;
65706;SDS011;52423;43.512;5.220;2022-08-19T08:00:45;8.07;;;2.63;;
65706;SDS011;52423;43.512;5.220;2022-08-19T08:03:13;3.75;;;2.38;;
65706;SDS011;52423;43.512;5.220;2022-08-19T08:05:40;2.60;;;2.40;;
65706;SDS011;52423;43.512;5.220;2022-08-19T08:08:25;2.60;;;2.40;;
65706;SDS011;52423;43.512;5.220;2022-08-19T08:11:10;5.57;;;2.50;;
65706;SDS011;52423;43.512;5.220;2022-08-19T08:13:37;4.75;;;2.50;;
65706;SDS011;52423;43.512;5.220;2022-08-19T08:16:02;2.67;;;2.30;;
65706;SDS011;52423;43.512;5.220;2022-08-19T08:18:28;2.70;;;2.50;;
65706;SDS011;52423;43.512;5.220;2022-08-19T08:20:55;2.80;;;2.60;;
65706;SDS011;52423;43.512;5.220;2022-08-19T08:23:21;6.78;;;2.50;;
65706;SDS011;52423;43.512;5.220;2022-08-19T08:25:47;2.88;;;2.67;;
65706;SDS011;52423;43.512;5.220;2022-08-19T08:28:14;5.80;;;2.47;;
65706;SDS011;52423;43.512;5.220;2022-08-19T08:30:41;3.90;;;2.70;;
65706;SDS011;52423;43.512;5.220;2022-08-19T08:33:08;2.50;;;2.30;;
65706;SDS011;52423;43.512;5.220;2022-08-19T08:35:35;2.85;;;2.25;;
65706;SDS011;52423;43.512;5.220;2022-08-19T08:38:01;4.10;;;2.35;;
65706;SDS011;52423;43.512;5.220;2022-08-19T08:40:30;6.07;;;2.20;;
65706;SDS011;52423;43.512;5.220;2022-08-19T08:46:13;2.83;;;2.63;;
65706;SDS011;52423;43.512;5.220;2022-08-19T08:48:54;2.75;;;2.55;;
65706;SDS011;52423;43.512;5.220;2022-08-19T08:51:24;2.38;;;2.17;;
65706;SDS011;52423;43.512;5.220;2022-08-19T08:53:54;7.22;;;2.50;;
65706;SDS011;52423;43.512;5.220;2022-08-19T08:56:21;6.57;;;2.67;;
65706;SDS011;52423;43.512;5.220;2022-08-19T08:58:58;2.47;;;2.38;;
65706;SDS011;52423;43.512;5.220;2022-08-19T09:01:27;4.18;;;2.80;;
65706;SDS011;52423;43.512;5.220;2022-08-19T09:03:53;8.68;;;2.72;;
65706;SDS011;52423;43.512;5.220;2022-08-19T09:09:06;2.60;;;2.40;;
65706;SDS011;52423;43.512;5.220;2022-08-19T09:11:52;3.97;;;2.20;;
65706;SDS011;52423;43.512;5.220;2022-08-19T09:14:31;3.97;;;2.60;;
65706;SDS011;52423;43.512;5.220;2022-08-19T09:17:01;3.78;;;2.30;;
65706;SDS011;52423;43.512;5.220;2022-08-19T09:19:34;2.47;;;2.28;;
65706;SDS011;52423;43.512;5.220;2022-08-19T09:22:01;9.65;;;2.45;;
65706;SDS011;52423;43.512;5.220;2022-08-19T09:24:26;10.52;;;2.53;;
65706;SDS011;52423;43.512;5.220;2022-08-19T09:26:52;3.67;;;2.40;;
65706;SDS011;52423;43.512;5.220;2022-08-19T09:29:18;3.38;;;2.03;;
65706;SDS011;52423;43.512;5.220;2022-08-19T09:31:46;2.42;;;2.22;;
65706;SDS011;52423;43.512;5.220;2022-08-19T09:34:11;5.68;;;2.38;;
65706;SDS011;52423;43.512;5.220;2022-08-19T09:36:37;2.53;;;2.40;;
65706;SDS011;52423;43.512;5.220;2022-08-19T09:39:04;12.18;;;2.45;;
65706;SDS011;52423;43.512;5.220;2022-08-19T09:41:31;2.95;;;2.30;;
65706;SDS011;52423;43.512;5.220;2022-08-19T09:43:57;3.03;;;2.10;;
65706;SDS011;52423;43.512;5.220;2022-08-19T09:46:24;2.70;;;2.50;;
65706;SDS011;52423;43.512;5.220;2022-08-19T09:48:52;2.65;;;2.28;;
65706;SDS011;52423;43.512;5.220;2022-08-19T09:51:20;2.63;;;2.42;;
65706;SDS011;52423;43.512;5.220;2022-08-19T09:53:48;5.03;;;2.17;;
65706;SDS011;52423;43.512;5.220;2022-08-19T09:56:16;3.35;;;1.98;;
65706;SDS011;52423;43.512;5.220;2022-08-19T09:58:43;4.50;;;2.30;;
65706;SDS011;52423;43.512;5.220;2022-08-19T10:01:14;3.63;;;2.35;;
65706;SDS011;52423;43.512;5.220;2022-08-19T10:03:41;2.50;;;2.30;;
65706;SDS011;52423;43.512;5.220;2022-08-19T10:06:07;3.60;;;2.10;;
65706;SDS011;52423;43.512;5.220;2022-08-19T10:08:35;5.25;;;2.22;;
65706;SDS011;52423;43.512;5.220;2022-08-19T10:11:02;3.17;;;2.80;;
65706;SDS011;52423;43.512;5.220;2022-08-19T10:13:29;6.82;;;2.70;;
65706;SDS011;52423;43.512;5.220;2022-08-19T10:16:03;3.75;;;2.38;;
65706;SDS011;52423;43.512;5.220;2022-08-19T10:18:31;2.55;;;2.35;;
65706;SDS011;52423;43.512;5.220;2022-08-19T10:21:19;3.00;;;2.13;;
65706;SDS011;52423;43.512;5.220;2022-08-19T10:23:46;2.40;;;2.20;;
65706;SDS011;52423;43.512;5.220;2022-08-19T10:26:24;3.33;;;2.50;;
65706;SDS011;52423;43.512;5.220;2022-08-19T10:28:54;1.92;;;1.83;;
65706;SDS011;52423;43.512;5.220;2022-08-19T10:31:22;4.88;;;2.15;;
65706;SDS011;52423;43.512;5.220;2022-08-19T10:33:50;2.17;;;2.05;;
65706;SDS011;52423;43.512;5.220;2022-08-19T10:36:17;4.10;;;2.15;;
65706;SDS011;52423;43.512;5.220;2022-08-19T10:38:45;3.78;;;1.88;;
65706;SDS011;52423;43.512;5.220;2022-08-19T10:41:13;5.07;;;1.95;;
65706;SDS011;52423;43.512;5.220;2022-08-19T10:43:41;2.20;;;2.00;;
65706;SDS011;52423;43.512;5.220;2022-08-19T10:46:08;2.38;;;2.15;;
65706;SDS011;52423;43.512;5.220;2022-08-19T10:48:36;2.00;;;1.90;;
65706;SDS011;52423;43.512;5.220;2022-08-19T10:51:02;2.20;;;2.03;;
65706;SDS011;52423;43.512;5.220;2022-08-19T10:53:47;5.68;;;2.45;;
65706;SDS011;52423;43.512;5.220;2022-08-19T10:56:12;1.90;;;1.80;;
65706;SDS011;52423;43.512;5.220;2022-08-19T10:58:57;2.75;;;2.13;;
65706;SDS011;52423;43.512;5.220;2022-08-19T11:01:24;2.00;;;1.90;;
65706;SDS011;52423;43.512;5.220;2022-08-19T11:03:50;2.15;;;2.05;;
65706;SDS011;52423;43.512;5.220;2022-08-19T11:06:16;6.82;;;2.30;;
65706;SDS011;52423;43.512;5.220;2022-08-19T11:08:42;4.03;;;1.90;;
65706;SDS011;52423;43.512;5.220;2022-08-19T11:11:10;3.85;;;2.00;;
65706;SDS011;52423;43.512;5.220;2022-08-19T11:13:38;6.10;;;2.17;;
65706;SDS011;52423;43.512;5.220;2022-08-19T11:16:09;2.50;;;2.30;;
65706;SDS011;52423;43.512;5.220;2022-08-19T11:18:39;2.80;;;2.13;;
65706;SDS011;52423;43.512;5.220;2022-08-19T11:21:16;3.25;;;2.38;;
65706;SDS011;52423;43.512;5.220;2022-08-19T11:23:45;2.53;;;2.33;;
65706;SDS011;52423;43.512;5.220;2022-08-19T11:26:15;2.30;;;2.20;;
65706;SDS011;52423;43.512;5.220;2022-08-19T11:28:42;2.50;;;2.30;;
65706;SDS011;52423;43.512;5.220;2022-08-19T11:31:15;5.22;;;2.35;;
65706;SDS011;52423;43.512;5.220;2022-08-19T11:33:43;2.40;;;2.10;;
65706;SDS011;52423;43.512;5.220;2022-08-19T11:36:11;3.47;;;2.28;;
65706;SDS011;52423;43.512;5.220;2022-08-19T11:38:38;2.20;;;2.10;;
65706;SDS011;52423;43.512;5.220;2022-08-19T11:41:05;7.57;;;3.10;;
65706;SDS011;52423;43.512;5.220;2022-08-19T11:43:32;2.58;;;2.40;;
65706;SDS011;52423;43.512;5.220;2022-08-19T11:45:59;7.53;;;2.45;;
65706;SDS011;52423;43.512;5.220;2022-08-19T11:48:28;7.43;;;2.50;;
65706;SDS011;52423;43.512;5.220;2022-08-19T11:50:54;3.80;;;2.20;;
65706;SDS011;52423;43.512;5.220;2022-08-19T11:53:23;2.83;;;2.50;;
65706;SDS011;52423;43.512;5.220;2022-08-19T11:55:48;2.50;;;2.30;;
65706;SDS011;52423;43.512;5.220;2022-08-19T11:58:16;2.50;;;2.40;;
65706;SDS011;52423;43.512;5.220;2022-08-19T12:00:43;2.55;;;2.40;;
65706;SDS011;52423;43.512;5.220;2022-08-19T12:03:10;2.83;;;2.63;;
65706;SDS011;52423;43.512;5.220;2022-08-19T12:05:38;5.85;;;2.65;;
65706;SDS011;52423;43.512;5.220;2022-08-19T12:08:05;4.20;;;2.63;;
65706;SDS011;52423;43.512;5.220;2022-08-19T12:10:31;2.70;;;2.50;;
65706;SDS011;52423;43.512;5.220;2022-08-19T12:12:57;3.28;;;2.50;;
65706;SDS011;52423;43.512;5.220;2022-08-19T12:15:23;3.47;;;2.95;;
65706;SDS011;52423;43.512;5.220;2022-08-19T12:17:49;3.22;;;2.92;;
65706;SDS011;52423;43.512;5.220;2022-08-19T12:20:15;3.90;;;2.85;;
65706;SDS011;52423;43.512;5.220;2022-08-19T12:22:42;3.72;;;3.28;;
65706;SDS011;52423;43.512;5.220;2022-08-19T12:25:09;3.83;;;3.17;;
65706;SDS011;52423;43.512;5.220;2022-08-19T12:27:37;3.40;;;3.10;;
65706;SDS011;52423;43.512;5.220;2022-08-19T12:30:04;2.95;;;2.72;;
65706;SDS011;52423;43.512;5.220;2022-08-19T12:32:32;5.50;;;3.05;;
65706;SDS011;52423;43.512;5.220;2022-08-19T12:34:58;3.13;;;2.92;;
65706;SDS011;52423;43.512;5.220;2022-08-19T12:37:24;5.70;;;2.60;;
65706;SDS011;52423;43.512;5.220;2022-08-19T12:39:49;3.60;;;3.30;;
65706;SDS011;52423;43.512;5.220;2022-08-19T12:42:15;3.13;;;2.83;;
65706;SDS011;52423;43.512;5.220;2022-08-19T12:44:43;2.75;;;2.55;;
65706;SDS011;52423;43.512;5.220;2022-08-19T12:47:10;3.50;;;3.20;;
65706;SDS011;52423;43.512;5.220;2022-08-19T12:49:37;3.72;;;3.00;;
65706;SDS011;52423;43.512;5.220;2022-08-19T12:52:04;4.30;;;3.20;;
65706;SDS011;52423;43.512;5.220;2022-08-19T12:54:32;3.88;;;3.25;;
65706;SDS011;52423;43.512;5.220;2022-08-19T12:56:59;6.18;;;3.50;;
65706;SDS011;52423;43.512;5.220;2022-08-19T12:59:25;3.55;;;3.10;;
65706;SDS011;52423;43.512;5.220;2022-08-19T13:01:51;4.97;;;3.20;;
65706;SDS011;52423;43.512;5.220;2022-08-19T13:04:17;3.22;;;3.00;;
65706;SDS011;52423;43.512;5.220;2022-08-19T13:06:43;4.82;;;3.35;;
65706;SDS011;52423;43.512;5.220;2022-08-19T13:09:09;5.57;;;3.33;;
65706;SDS011;52423;43.512;5.220;2022-08-19T13:11:36;4.47;;;3.15;;
65706;SDS011;52423;43.512;5.220;2022-08-19T13:14:02;3.47;;;3.13;;
65706;SDS011;52423;43.512;5.220;2022-08-19T13:16:28;4.40;;;3.10;;
65706;SDS011;52423;43.512;5.220;2022-08-19T13:18:55;3.78;;;3.22;;
65706;SDS011;52423;43.512;5.220;2022-08-19T13:21:23;6.15;;;3.58;;
65706;SDS011;52423;43.512;5.220;2022-08-19T13:23:52;3.80;;;3.47;;
65706;SDS011;52423;43.512;5.220;2022-08-19T13:26:19;4.47;;;3.40;;
65706;SDS011;52423;43.512;5.220;2022-08-19T13:28:45;6.68;;;3.30;;
65706;SDS011;52423;43.512;5.220;2022-08-19T13:31:31;4.55;;;3.40;;
65706;SDS011;52423;43.512;5.220;2022-08-19T13:34:18;3.92;;;3.30;;
65706;SDS011;52423;43.512;5.220;2022-08-19T13:36:53;4.07;;;2.97;;
65706;SDS011;52423;43.512;5.220;2022-08-19T13:39:18;4.07;;;3.10;;
65706;SDS011;52423;43.512;5.220;2022-08-19T13:41:44;3.63;;;3.38;;
65706;SDS011;52423;43.512;5.220;2022-08-19T13:44:16;4.32;;;3.42;;
65706;SDS011;52423;43.512;5.220;2022-08-19T13:46:45;6.00;;;3.00;;
65706;SDS011;52423;43.512;5.220;2022-08-19T13:49:14;4.10;;;3.35;;
65706;SDS011;52423;43.512;5.220;2022-08-19T13:51:41;3.47;;;3.13;;
65706;SDS011;52423;43.512;5.220;2022-08-19T13:54:08;4.47;;;3.63;;
65706;SDS011;52423;43.512;5.220;2022-08-19T13:56:39;5.55;;;3.10;;
65706;SDS011;52423;43.512;5.220;2022-08-19T13:59:06;3.22;;;3.00;;
65706;SDS011;52423;43.512;5.220;2022-08-19T14:01:32;8.13;;;3.42;;
65706;SDS011;52423;43.512;5.220;2022-08-19T14:03:58;3.85;;;3.53;;
65706;SDS011;52423;43.512;5.220;2022-08-19T14:06:24;5.57;;;3.30;;
65706;SDS011;52423;43.512;5.220;2022-08-19T14:08:50;3.92;;;3.00;;
65706;SDS011;52423;43.512;5.220;2022-08-19T14:11:18;4.15;;;3.20;;
65706;SDS011;52423;43.512;5.220;2022-08-19T14:13:43;5.25;;;3.00;;
65706;SDS011;52423;43.512;5.220;2022-08-19T14:16:10;3.30;;;3.08;;
65706;SDS011;52423;43.512;5.220;2022-08-19T14:18:37;6.05;;;3.80;;
65706;SDS011;52423;43.512;5.220;2022-08-19T14:21:03;3.72;;;2.90;;
65706;SDS011;52423;43.512;5.220;2022-08-19T14:23:30;4.60;;;3.05;;
65706;SDS011;52423;43.512;5.220;2022-08-19T14:26:03;3.80;;;3.50;;
65706;SDS011;52423;43.512;5.220;2022-08-19T14:28:37;6.25;;;3.42;;
65706;SDS011;52423;43.512;5.220;2022-08-19T14:31:06;4.20;;;3.22;;
65706;SDS011;52423;43.512;5.220;2022-08-19T14:33:32;3.92;;;3.55;;
65706;SDS011;52423;43.512;5.220;2022-08-19T14:35:58;3.83;;;3.50;;
65706;SDS011;52423;43.512;5.220;2022-08-19T14:38:25;4.57;;;3.33;;
65706;SDS011;52423;43.512;5.220;2022-08-19T14:40:51;4.30;;;3.42;;
65706;SDS011;52423;43.512;5.220;2022-08-19T14:43:17;4.75;;;3.20;;
65706;SDS011;52423;43.512;5.220;2022-08-19T14:45:43;4.38;;;3.97;;
65706;SDS011;52423;43.512;5.220;2022-08-19T14:48:09;3.90;;;3.50;;
65706;SDS011;52423;43.512;5.220;2022-08-19T14:50:35;8.88;;;3.83;;
65706;SDS011;52423;43.512;5.220;2022-08-19T14:53:04;4.78;;;3.00;;
65706;SDS011;52423;43.512;5.220;2022-08-19T14:55:33;3.33;;;3.03;;
65706;SDS011;52423;43.512;5.220;2022-08-19T14:57:59;9.93;;;2.97;;
65706;SDS011;52423;43.512;5.220;2022-08-19T15:00:24;3.45;;;3.05;;
65706;SDS011;52423;43.512;5.220;2022-08-19T15:02:50;9.63;;;3.33;;